Time;durP1;ratioP1;P1;durP2;ratioP2;P2;SDS_P1;SDS_P2;PMS_P1;PMS_P2;Temp;Humidity;BMP_temperature;BMP_pressure;BME280_temperature;BME280_humidity;BME280_pressure;Samples;Min_cycle;Max_cycle;Signal;HPM_P1;HPM_P2
2021/07/04 00:02:23;;;;;;;20.60;9.83;;;;;;;19.87;86.21;99692.42;1727205;83;21713;-57
2021/07/04 00:05:32;;;;;;;12.98;9.90;;;;;;;19.82;86.18;99690.94;1727417;83;21934;-57
2021/07/04 00:08:40;;;;;;;19.35;10.80;;;;;;;19.76;86.36;99683.59;1727295;83;21360;-57
2021/07/04 00:11:50;;;;;;;19.90;10.85;;;;;;;19.70;86.26;99682.68;1727049;83;21208;-56
2021/07/04 00:14:58;;;;;;;17.87;11.25;;;;;;;19.63;86.43;99682.56;1727415;83;21382;-58
2021/07/04 00:18:04;;;;;;;17.85;9.88;;;;;;;19.59;86.55;99682.75;1727262;83;21402;-57
2021/07/04 00:21:11;;;;;;;13.38;9.68;;;;;;;19.60;86.58;99676.13;1727497;83;21481;-57
2021/07/04 00:24:17;;;;;;;16.52;9.23;;;;;;;19.58;86.31;99675.52;1727431;83;22121;-58
2021/07/04 00:27:23;;;;;;;15.83;9.38;;;;;;;19.56;86.17;99669.38;1727436;83;21343;-57
2021/07/04 00:30:29;;;;;;;19.12;9.73;;;;;;;19.52;86.05;99675.97;1727417;83;21417;-57
2021/07/04 00:33:38;;;;;;;21.12;11.95;;;;;;;19.53;86.19;99676.81;1727544;83;21375;-57
2021/07/04 00:36:47;;;;;;;15.50;9.50;;;;;;;19.50;86.12;99677.32;1741707;80;21349;-56
2021/07/04 00:39:56;;;;;;;21.20;10.45;;;;;;;19.51;86.39;99678.45;1771413;80;21326;-56
2021/07/04 00:43:02;;;;;;;18.92;10.18;;;;;;;19.51;86.43;99681.23;1770659;81;21200;-57
2021/07/04 00:46:08;;;;;;;22.35;9.70;;;;;;;19.45;86.32;99682.78;1770520;81;21365;-58
2021/07/04 00:49:14;;;;;;;19.48;9.50;;;;;;;19.39;86.30;99674.06;1750975;81;21335;-59
2021/07/04 00:52:21;;;;;;;16.57;10.38;;;;;;;19.33;86.46;99675.36;1763257;81;21237;-57
2021/07/04 00:55:28;;;;;;;22.22;10.35;;;;;;;19.29;86.60;99672.80;1763435;81;21249;-57
2021/07/04 00:58:38;;;;;;;25.10;11.48;;;;;;;19.22;86.80;99677.61;1766184;81;21232;-59
2021/07/04 01:01:44;;;;;;;21.70;12.28;;;;;;;19.17;87.03;99678.90;1770888;81;22150;-58
2021/07/04 01:04:54;;;;;;;21.57;11.48;;;;;;;19.15;87.43;99673.31;1771138;81;21745;-57
2021/07/04 01:08:02;;;;;;;21.02;10.25;;;;;;;19.18;87.64;99671.43;1771169;80;21736;-57
2021/07/04 01:11:09;;;;;;;15.75;10.23;;;;;;;19.20;87.44;99678.40;1770952;81;21366;-57
2021/07/04 01:14:17;;;;;;;19.42;10.50;;;;;;;19.16;87.32;99675.84;1770762;81;21446;-57
2021/07/04 01:17:24;;;;;;;14.43;10.15;;;;;;;19.14;87.40;99671.08;1752702;80;21854;-57
2021/07/04 01:20:31;;;;;;;15.58;10.05;;;;;;;19.16;87.53;99674.45;1752217;80;21413;-58
2021/07/04 01:23:38;;;;;;;16.40;10.55;;;;;;;19.19;87.54;99680.04;1768574;81;21330;-58
2021/07/04 01:26:45;;;;;;;17.05;10.08;;;;;;;19.18;87.25;99679.22;1765370;81;21228;-57
2021/07/04 01:29:51;;;;;;;14.50;9.43;;;;;;;19.16;87.26;99684.16;1768190;81;21231;-57
2021/07/04 01:32:58;;;;;;;15.25;9.43;;;;;;;19.18;87.31;99693.09;1770536;81;21251;-58
2021/07/04 01:36:03;;;;;;;11.22;9.53;;;;;;;19.20;87.28;99691.45;1770401;81;21251;-57
2021/07/04 01:39:12;;;;;;;17.57;9.15;;;;;;;19.23;87.27;99706.22;1767873;80;21249;-57
2021/07/04 01:42:21;;;;;;;17.77;10.08;;;;;;;19.23;87.03;99701.48;1770504;80;21193;-58
2021/07/04 01:45:29;;;;;;;15.10;8.80;;;;;;;19.20;86.87;99705.33;1764380;80;21193;-57
2021/07/04 01:48:36;;;;;;;17.32;9.75;;;;;;;19.19;87.00;99705.87;1769913;80;21181;-57
2021/07/04 01:51:44;;;;;;;19.17;10.38;;;;;;;19.19;86.88;99700.31;1770282;80;21297;-57
2021/07/04 01:54:54;;;;;;;16.27;9.45;;;;;;;19.17;86.70;99698.33;1771535;80;21209;-56
2021/07/04 01:58:02;;;;;;;17.12;8.88;;;;;;;19.19;86.91;99701.70;1771721;80;21717;-57
2021/07/04 02:01:12;;;;;;;14.43;8.68;;;;;;;19.21;86.82;99696.75;1763301;81;21410;-57
2021/07/04 02:04:20;;;;;;;19.65;9.25;;;;;;;19.20;86.57;99699.22;1770842;81;21344;-57
2021/07/04 02:07:27;;;;;;;18.98;8.75;;;;;;;19.17;86.43;99703.87;1771074;81;21355;-56
2021/07/04 02:10:37;;;;;;;15.95;9.63;;;;;;;19.16;86.58;99706.90;1759093;80;21249;-56
2021/07/04 02:13:47;;;;;;;13.50;9.05;;;;;;;19.15;86.67;99707.44;1770331;80;21937;-56
2021/07/04 02:16:54;;;;;;;17.87;9.53;;;;;;;19.18;86.93;99705.58;1770239;81;21269;-57
2021/07/04 02:20:43;;;;;;;19.90;9.65;;;;;;;19.25;87.11;99713.19;1771136;81;21732;-56
2021/07/04 02:23:50;;;;;;;14.73;8.50;;;;;;;19.29;86.78;99713.05;1768055;80;21228;-56
2021/07/04 02:27:06;;;;;;;13.70;8.10;;;;;;;19.38;86.77;99714.03;1762901;81;21182;-58
2021/07/04 02:30:16;;;;;;;11.08;8.58;;;;;;;19.44;86.31;99718.58;1762175;80;21208;-58
2021/07/04 02:33:23;;;;;;;11.18;8.68;;;;;;;19.49;85.87;99722.84;1770546;80;21914;-59
2021/07/04 02:36:30;;;;;;;12.90;8.25;;;;;;;19.55;85.72;99716.29;1772314;80;21789;-56
2021/07/04 02:39:40;;;;;;;15.65;8.60;;;;;;;19.57;85.46;99719.66;1775208;79;21225;-58
2021/07/04 02:42:50;;;;;;;16.27;9.38;;;;;;;19.60;85.44;99718.59;1777872;80;21236;-57
2021/07/04 02:45:56;;;;;;;15.50;8.65;;;;;;;19.62;85.22;99720.58;1770438;80;21351;-58
2021/07/04 02:49:03;;;;;;;11.22;7.90;;;;;;;19.64;85.07;99719.80;1771342;80;21198;-58
2021/07/04 02:52:13;;;;;;;12.88;8.70;;;;;;;19.67;84.84;99726.77;1770837;80;21368;-59
2021/07/04 02:55:20;;;;;;;12.58;8.73;;;;;;;19.69;84.67;99727.37;1737591;82;21370;-56
2021/07/04 02:58:27;;;;;;;16.35;8.63;;;;;;;19.75;84.58;99726.36;1716955;83;21742;-56
2021/07/04 03:01:34;;;;;;;14.40;9.05;;;;;;;19.78;84.62;99725.86;1706539;84;21228;-58
2021/07/04 03:04:41;;;;;;;17.00;9.20;;;;;;;19.81;84.39;99719.80;1706925;83;21326;-56
2021/07/04 03:07:49;;;;;;;11.88;8.65;;;;;;;19.80;84.31;99721.75;1773182;80;21339;-55
2021/07/04 03:10:56;;;;;;;14.73;9.50;;;;;;;19.86;84.24;99735.16;1771996;80;21367;-56
2021/07/04 03:14:04;;;;;;;13.30;9.20;;;;;;;19.92;84.19;99735.54;1771370;80;21272;-57
2021/07/04 03:17:11;;;;;;;14.40;9.58;;;;;;;20.02;83.99;99738.50;1770618;80;21702;-55
2021/07/04 03:20:21;;;;;;;10.72;8.33;;;;;;;20.05;83.22;99735.21;1740337;82;21339;-56
2021/07/04 03:23:31;;;;;;;12.33;8.53;;;;;;;20.06;82.89;99743.30;1722209;83;21371;-55
2021/07/04 03:26:37;;;;;;;12.90;8.33;;;;;;;20.13;82.95;99752.86;1706620;84;21251;-55
2021/07/04 03:29:45;;;;;;;13.03;8.35;;;;;;;20.21;82.87;99742.73;1706701;83;21795;-56
2021/07/04 03:32:51;;;;;;;19.20;8.30;;;;;;;20.35;82.98;99746.85;1706591;84;21185;-56
2021/07/04 03:35:56;;;;;;;13.15;7.67;;;;;;;20.52;82.21;99745.73;1706662;84;21575;-56
2021/07/04 03:39:03;;;;;;;11.57;8.08;;;;;;;20.56;81.55;99740.50;1706579;84;21257;-56
2021/07/04 03:42:10;;;;;;;12.15;7.92;;;;;;;20.68;81.26;99741.22;1706211;84;21709;-58
2021/07/04 03:45:17;;;;;;;11.68;7.87;;;;;;;20.85;81.18;99739.26;1771232;80;21335;-57
2021/07/04 03:48:24;;;;;;;15.93;8.08;;;;;;;20.93;80.74;99738.78;1770200;80;21346;-57
2021/07/04 03:51:31;;;;;;;13.28;7.75;;;;;;;21.02;80.54;99741.45;1770984;80;21867;-57
2021/07/04 03:54:39;;;;;;;13.43;7.85;;;;;;;21.11;80.29;99748.24;1770809;80;21832;-56
2021/07/04 03:57:48;;;;;;;15.88;8.25;;;;;;;21.19;80.08;99744.15;1771269;81;21343;-56
2021/07/04 04:00:56;;;;;;;15.03;8.25;;;;;;;21.24;79.85;99747.85;1771107;80;21406;-56
2021/07/04 04:04:03;;;;;;;10.08;8.18;;;;;;;21.33;79.83;99748.21;1771242;80;21197;-56
2021/07/04 04:07:11;;;;;;;16.95;8.58;;;;;;;21.44;79.86;99746.68;1737069;81;21385;-58
2021/07/04 04:10:24;;;;;;;14.40;8.75;;;;;;;21.59;79.66;99748.25;1770894;80;21312;-57
2021/07/04 04:13:32;;;;;;;11.83;8.78;;;;;;;21.71;79.54;99743.89;1771713;80;21260;-58
2021/07/04 04:16:42;;;;;;;14.80;7.72;;;;;;;21.83;79.56;99739.90;1771272;80;21378;-58
2021/07/04 04:19:53;;;;;;;13.83;6.92;;;;;;;21.94;79.08;99731.92;1770453;80;21225;-57
2021/07/04 04:22:58;;;;;;;12.55;8.00;;;;;;;22.00;78.38;99720.23;1770726;80;21205;-58
2021/07/04 04:26:06;;;;;;;15.25;7.65;;;;;;;22.08;77.99;99713.63;1770867;80;21939;-59
2021/07/04 04:29:14;;;;;;;11.25;6.60;;;;;;;22.13;76.90;99719.25;1770717;80;21185;-56
2021/07/04 04:32:22;;;;;;;13.05;6.58;;;;;;;22.10;76.66;99716.16;1771483;80;21735;-56
2021/07/04 04:35:30;;;;;;;16.82;7.83;;;;;;;22.13;76.45;99712.28;1771174;81;21316;-58
2021/07/04 04:38:36;;;;;;;9.85;7.03;;;;;;;22.18;76.40;99720.66;1737321;82;21486;-56
2021/07/04 04:41:44;;;;;;;10.28;6.72;;;;;;;22.22;75.61;99709.81;1767816;80;21359;-59
2021/07/04 04:44:52;;;;;;;10.93;7.22;;;;;;;22.18;75.14;99696.96;1769116;80;21209;-58
2021/07/04 04:48:00;;;;;;;9.38;6.95;;;;;;;22.23;75.22;99706.77;1769487;80;21197;-58
2021/07/04 04:51:08;;;;;;;8.78;6.58;;;;;;;22.33;75.16;99697.63;1769851;80;21225;-56
2021/07/04 04:54:14;;;;;;;11.10;6.50;;;;;;;22.38;74.68;99702.39;1769488;81;21328;-59
2021/07/04 04:57:20;;;;;;;9.65;6.78;;;;;;;22.39;74.55;99699.33;1769619;80;21166;-57
2021/07/04 05:00:28;;;;;;;9.48;6.97;;;;;;;22.41;74.08;99704.64;1760749;81;21197;-56
2021/07/04 05:03:34;;;;;;;10.82;6.58;;;;;;;22.37;74.61;99697.94;1769434;81;21864;-56
2021/07/04 05:06:42;;;;;;;9.08;6.40;;;;;;;22.44;74.91;99695.77;1769305;81;21374;-56
2021/07/04 05:09:50;;;;;;;8.48;6.17;;;;;;;22.57;74.71;99698.08;1769504;81;21371;-56
2021/07/04 05:12:58;;;;;;;9.25;6.20;;;;;;;22.69;73.78;99707.91;1769378;81;21210;-57
2021/07/04 05:16:08;;;;;;;8.98;6.22;;;;;;;22.79;72.94;99705.73;1769371;81;21329;-57
2021/07/04 05:19:18;;;;;;;8.75;5.95;;;;;;;22.90;72.55;99706.91;1769110;81;21343;-56
2021/07/04 05:22:27;;;;;;;9.83;6.47;;;;;;;23.02;71.71;99707.55;1768982;81;21586;-56
2021/07/04 05:25:37;;;;;;;7.67;6.55;;;;;;;23.12;70.96;99706.17;1768998;81;21860;-57
2021/07/04 05:28:43;;;;;;;8.38;5.62;;;;;;;23.16;70.38;99705.92;1769313;81;21419;-57
2021/07/04 05:31:50;;;;;;;8.50;5.95;;;;;;;23.25;70.34;99702.02;1769365;80;21194;-57
2021/07/04 05:34:58;;;;;;;6.47;5.65;;;;;;;23.32;69.30;99705.44;1768986;80;21233;-56
2021/07/04 05:38:03;;;;;;;9.65;5.53;;;;;;;23.36;69.58;99696.77;1769682;80;21729;-56
2021/07/04 05:41:10;;;;;;;6.65;5.17;;;;;;;23.45;69.23;99704.92;1768978;80;21172;-57
2021/07/04 05:44:16;;;;;;;7.80;5.50;;;;;;;23.55;68.95;99701.58;1767121;80;21915;-56
2021/07/04 05:47:23;;;;;;;8.68;4.97;;;;;;;23.69;68.50;99704.66;1768849;80;21331;-57
2021/07/04 05:50:30;;;;;;;9.18;4.42;;;;;;;23.77;67.15;99709.70;1769218;80;21359;-57
2021/07/04 05:53:36;;;;;;;7.03;4.45;;;;;;;23.84;65.56;99706.64;1769234;80;21793;-58
2021/07/04 05:56:35;;;;;;;12.95;5.55;;;;;;;23.89;65.16;99703.84;1760960;81;21374;-58
2021/07/04 05:59:43;;;;;;;9.88;4.60;;;;;;;24.00;64.64;99705.02;1769421;81;21280;-57
2021/07/04 06:02:50;;;;;;;11.83;4.53;;;;;;;24.09;63.93;99701.92;1769338;81;21841;-58
2021/07/04 06:05:56;;;;;;;8.05;4.42;;;;;;;24.14;63.38;99701.92;1769793;80;21225;-57
2021/07/04 06:09:02;;;;;;;7.30;4.42;;;;;;;24.23;63.18;99710.02;1769065;80;21197;-57
2021/07/04 06:12:08;;;;;;;5.97;3.47;;;;;;;24.33;63.12;99707.77;1769069;80;21244;-57
2021/07/04 06:15:19;;;;;;;6.12;3.47;;;;;;;24.40;61.18;99709.19;1769102;81;21403;-57
2021/07/04 06:18:25;;;;;;;8.83;3.85;;;;;;;24.49;61.51;99703.28;1769337;81;21210;-57
2021/07/04 06:21:34;;;;;;;6.55;3.47;;;;;;;24.62;61.70;99706.91;1769435;81;21381;-56
2021/07/04 06:24:40;;;;;;;7.75;3.85;;;;;;;24.76;61.66;99705.22;1768898;81;21399;-57
2021/07/04 06:27:47;;;;;;;6.00;3.33;;;;;;;24.87;60.60;99708.25;1769114;81;21201;-58
2021/07/04 06:30:54;;;;;;;7.85;3.50;;;;;;;24.98;60.03;99704.29;1769202;81;21398;-57
2021/07/04 06:34:04;;;;;;;8.40;3.55;;;;;;;25.08;59.46;99703.41;1769349;81;21344;-58
2021/07/04 06:37:11;;;;;;;7.80;2.95;;;;;;;25.13;58.77;99699.74;1769370;81;21190;-59
2021/07/04 06:40:20;;;;;;;5.30;3.05;;;;;;;25.20;58.12;99698.88;1762593;81;21765;-58
2021/07/04 06:43:25;;;;;;;6.58;3.37;;;;;;;25.30;57.30;99698.81;1767975;80;21345;-57
2021/07/04 06:46:31;;;;;;;5.97;3.72;;;;;;;25.35;57.39;99688.45;1769238;80;21355;-57
2021/07/04 06:49:38;;;;;;;7.00;3.47;;;;;;;25.43;57.89;99697.66;1769207;80;21202;-57
2021/07/04 06:52:46;;;;;;;7.40;3.45;;;;;;;25.53;57.92;99694.78;1769302;81;21387;-57
2021/07/04 06:55:52;;;;;;;5.75;2.90;;;;;;;25.64;58.02;99694.17;1769137;81;21414;-59
2021/07/04 06:58:59;;;;;;;8.83;2.90;;;;;;;25.72;57.31;99695.77;1769370;81;21312;-59
2021/07/04 07:02:07;;;;;;;7.45;3.25;;;;;;;25.77;55.70;99694.33;1770212;81;21356;-57
2021/07/04 07:05:16;;;;;;;6.12;3.10;;;;;;;25.87;56.09;99690.61;1749904;81;21720;-57
2021/07/04 07:08:24;;;;;;;5.85;2.50;;;;;;;25.96;55.40;99680.44;1750857;80;21366;-57
2021/07/04 07:11:31;;;;;;;4.08;2.77;;;;;;;26.03;54.08;99681.83;1767599;80;21784;-57
2021/07/04 07:14:37;;;;;;;6.42;2.95;;;;;;;26.10;53.21;99686.52;1768213;80;22252;-56
2021/07/04 07:17:44;;;;;;;6.37;2.70;;;;;;;26.15;53.66;99682.83;1767682;80;21176;-57
2021/07/04 07:20:50;;;;;;;3.92;2.42;;;;;;;26.20;53.25;99671.56;1771292;80;21228;-57
2021/07/04 07:23:55;;;;;;;6.40;2.85;;;;;;;26.21;52.61;99664.83;1735167;82;21664;-57
2021/07/04 07:27:07;;;;;;;9.68;2.92;;;;;;;26.23;52.12;99666.76;1770228;80;21177;-58
2021/07/04 07:30:15;;;;;;;4.50;2.40;;;;;;;26.26;52.97;99664.20;1735113;82;21196;-57
2021/07/04 07:33:20;;;;;;;5.55;2.60;;;;;;;26.31;54.14;99661.91;1670013;84;21258;-57
2021/07/04 07:36:27;;;;;;;4.67;2.50;;;;;;;26.38;54.13;99653.98;1717792;83;21251;-58
2021/07/04 07:39:34;;;;;;;6.17;3.00;;;;;;;26.46;53.59;99646.33;1715939;82;21356;-58
2021/07/04 07:42:41;;;;;;;8.18;2.77;;;;;;;26.49;53.53;99652.75;1761185;81;21241;-57
2021/07/04 07:45:46;;;;;;;6.53;2.70;;;;;;;26.54;53.99;99647.08;1769149;80;21205;-57
2021/07/04 07:48:53;;;;;;;4.70;2.50;;;;;;;26.63;53.37;99645.84;1740158;82;21208;-57
2021/07/04 07:52:07;;;;;;;4.47;2.62;;;;;;;26.73;53.75;99648.02;1739937;82;21613;-57
2021/07/04 07:55:14;;;;;;;9.35;3.30;;;;;;;26.82;53.46;99649.02;1739220;81;21204;-57
2021/07/04 07:58:20;;;;;;;6.33;2.75;;;;;;;26.86;53.65;99656.28;1740059;82;21623;-57
2021/07/04 08:01:25;;;;;;;6.00;2.20;;;;;;;26.90;53.28;99655.94;1748308;79;21181;-56
2021/07/04 08:04:35;;;;;;;5.62;2.15;;;;;;;26.94;52.55;99661.23;1770783;81;21860;-56
2021/07/04 08:07:41;;;;;;;5.70;2.33;;;;;;;27.01;51.63;99666.75;1770738;81;21330;-57
2021/07/04 08:10:48;;;;;;;6.67;2.22;;;;;;;27.10;49.82;99668.34;1767112;81;21758;-58
2021/07/04 08:13:52;;;;;;;3.55;2.50;;;;;;;27.17;49.72;99666.83;1768925;80;21204;-57
2021/07/04 08:17:01;;;;;;;4.42;2.80;;;;;;;27.27;51.40;99671.51;1768935;80;21233;-57
2021/07/04 08:20:07;;;;;;;3.92;2.80;;;;;;;27.37;50.38;99674.19;1733949;82;21772;-57
2021/07/04 08:23:14;;;;;;;5.08;2.40;;;;;;;27.44;50.95;99677.44;1696896;84;21342;-58
2021/07/04 08:26:21;;;;;;;5.37;2.83;;;;;;;27.52;50.97;99677.61;1733018;82;21216;-58
2021/07/04 08:29:28;;;;;;;3.72;2.25;;;;;;;27.58;50.24;99666.54;1721178;82;21336;-56
2021/07/04 08:32:33;;;;;;;7.50;2.52;;;;;;;27.64;50.36;99666.72;1721491;83;21332;-56
2021/07/04 08:35:40;;;;;;;8.58;2.40;;;;;;;27.72;50.08;99664.63;1719755;82;21230;-57
2021/07/04 08:38:45;;;;;;;5.75;2.80;;;;;;;27.80;50.24;99663.94;1770597;80;22231;-57
2021/07/04 08:41:50;;;;;;;5.45;3.33;;;;;;;27.89;49.75;99657.65;1770448;80;21347;-57
2021/07/04 08:44:58;;;;;;;6.67;3.45;;;;;;;27.95;50.17;99652.20;1770457;79;21720;-57
2021/07/04 08:48:05;;;;;;;5.85;3.10;;;;;;;28.01;49.93;99653.77;1772236;80;21339;-57
2021/07/04 08:51:12;;;;;;;5.42;3.12;;;;;;;28.03;50.83;99655.16;1772458;79;21209;-58
2021/07/04 08:54:18;;;;;;;9.35;2.85;;;;;;;28.11;50.86;99649.39;1772615;80;21347;-57
2021/07/04 08:57:26;;;;;;;5.42;3.80;;;;;;;28.14;50.00;99646.80;1772737;80;21323;-57
2021/07/04 09:00:32;;;;;;;5.40;3.33;;;;;;;28.17;50.31;99663.06;1771690;80;21350;-58
2021/07/04 09:03:39;;;;;;;5.47;3.25;;;;;;;28.17;51.01;99656.59;1770407;81;21730;-58
2021/07/04 09:06:52;;;;;;;7.15;3.10;;;;;;;28.22;50.94;99657.91;1770064;81;21260;-57
2021/07/04 09:10:07;;;;;;;8.80;3.45;;;;;;;28.24;50.37;99650.00;1769860;80;21198;-57
2021/07/04 09:13:19;;;;;;;8.28;3.17;;;;;;;28.19;50.09;99643.89;1769530;81;21707;-58
2021/07/04 09:16:27;;;;;;;4.67;2.70;;;;;;;28.15;48.85;99637.76;1769996;80;21194;-57
2021/07/04 09:19:37;;;;;;;7.37;2.90;;;;;;;28.14;48.84;99644.55;1770521;80;21702;-57
2021/07/04 09:22:46;;;;;;;7.58;2.90;;;;;;;28.14;48.62;99634.69;1770515;80;21367;-59
2021/07/04 09:25:53;;;;;;;5.42;2.70;;;;;;;28.20;47.54;99650.34;1770856;80;21732;-58
2021/07/04 09:28:58;;;;;;;4.55;2.58;;;;;;;28.18;47.31;99637.98;1762791;81;21386;-57
2021/07/04 09:32:10;;;;;;;4.58;2.87;;;;;;;28.20;48.23;99640.48;1771918;80;21193;-57
2021/07/04 09:35:18;;;;;;;5.62;3.42;;;;;;;28.27;48.16;99640.38;1772698;80;21359;-57
2021/07/04 09:38:26;;;;;;;4.12;2.70;;;;;;;28.32;48.82;99633.21;1771933;80;21717;-58
2021/07/04 09:41:31;;;;;;;5.42;2.85;;;;;;;28.42;48.21;99633.59;1772053;80;21382;-59
2021/07/04 09:44:40;;;;;;;4.67;2.98;;;;;;;28.48;47.51;99629.59;1772371;80;21637;-58
2021/07/04 09:47:46;;;;;;;4.47;2.87;;;;;;;28.54;47.51;99630.56;1746688;79;21366;-57
2021/07/04 09:50:56;;;;;;;5.40;3.02;;;;;;;28.66;48.54;99635.69;1727665;81;21488;-58
2021/07/04 09:54:03;;;;;;;4.08;2.27;;;;;;;28.80;48.29;99630.89;1762641;81;21212;-59
2021/07/04 09:57:08;;;;;;;5.42;2.45;;;;;;;28.86;47.57;99626.84;1763100;81;21307;-57
2021/07/04 10:00:26;;;;;;;4.42;2.50;;;;;;;28.88;47.02;99632.97;1763053;81;21362;-59
2021/07/04 10:03:33;;;;;;;5.65;2.37;;;;;;;28.94;46.92;99619.02;1762535;81;21366;-57
2021/07/04 10:06:59;;;;;;;5.50;2.55;;;;;;;29.01;46.36;99624.52;1762647;81;21724;-57
2021/07/04 10:10:06;;;;;;;3.58;2.30;;;;;;;29.08;45.90;99625.54;1762876;80;21860;-59
2021/07/04 10:13:12;;;;;;;6.33;2.42;;;;;;;29.05;45.88;99617.69;1763245;81;21405;-58
2021/07/04 10:16:22;;;;;;;6.28;2.37;;;;;;;29.09;46.82;99620.15;1707530;82;21233;-57
2021/07/04 10:19:35;;;;;;;6.37;2.55;;;;;;;29.19;44.61;99609.47;1739859;82;21356;-58
2021/07/04 10:22:44;;;;;;;9.75;2.17;;;;;;;29.31;45.17;99613.72;1740203;82;21187;-58
2021/07/04 10:25:51;;;;;;;5.12;2.00;;;;;;;29.46;44.76;99610.56;1740841;81;21688;-57
2021/07/04 10:28:57;;;;;;;5.50;1.80;;;;;;;29.60;44.11;99611.34;1739610;82;21190;-59
2021/07/04 10:32:14;;;;;;;11.18;1.95;;;;;;;29.75;41.63;99601.95;1740146;82;21392;-57
2021/07/04 10:35:20;;;;;;;3.47;1.70;;;;;;;29.85;41.04;99601.70;1743129;81;21361;-59
2021/07/04 10:38:26;;;;;;;6.15;1.92;;;;;;;29.99;42.08;99593.99;1762981;81;21445;-58
2021/07/04 10:41:41;;;;;;;5.28;2.00;;;;;;;30.11;40.72;99595.63;1762746;81;21200;-58
2021/07/04 10:44:57;;;;;;;4.05;2.00;;;;;;;30.18;41.44;99598.84;1763202;81;21891;-57
2021/07/04 10:48:29;;;;;;;5.47;1.98;;;;;;;30.17;40.46;99600.58;1763946;79;21824;-59
2021/07/04 10:51:35;;;;;;;3.77;1.60;;;;;;;30.12;41.30;99593.09;1770486;80;21655;-57
2021/07/04 10:54:52;;;;;;;3.35;1.82;;;;;;;30.23;40.83;99592.25;1770399;80;21194;-57
2021/07/04 10:58:02;;;;;;;3.92;1.77;;;;;;;30.30;41.06;99584.16;1770106;80;21251;-58
2021/07/04 11:01:17;;;;;;;6.45;1.70;;;;;;;30.45;40.33;99583.16;1759738;80;21287;-58
2021/07/04 11:04:43;;;;;;;3.25;1.55;;;;;;;30.51;38.72;99589.47;1763160;80;21431;-59
2021/07/04 11:08:09;;;;;;;7.85;1.70;;;;;;;30.44;38.82;99584.32;1735500;82;21669;-58
2021/07/04 11:11:16;;;;;;;2.33;1.30;;;;;;;30.46;38.28;99593.28;1771172;80;21743;-57
2021/07/04 11:14:24;;;;;;;4.17;1.60;;;;;;;30.61;37.42;99591.45;1735378;82;21536;-58
2021/07/04 11:17:29;;;;;;;3.77;1.57;;;;;;;30.64;37.71;99585.14;1771660;80;21859;-57
2021/07/04 11:20:50;;;;;;;4.35;1.60;;;;;;;30.79;37.16;99585.88;1770148;81;21240;-58
2021/07/04 11:24:10;;;;;;;5.87;2.00;;;;;;;30.87;36.40;99585.08;1770386;80;21216;-57
2021/07/04 11:27:32;;;;;;;4.60;1.50;;;;;;;30.87;36.40;99585.08;1770926;80;21347;-58
2021/07/04 11:30:39;;;;;;;2.22;1.15;;;;;;;30.92;35.89;99584.92;1764899;81;21208;-58
2021/07/04 11:33:57;;;;;;;2.47;1.40;;;;;;;31.02;36.00;99582.61;1762028;80;21193;-58
2021/07/04 11:37:02;;;;;;;5.10;1.72;;;;;;;31.12;36.07;99574.39;1764442;80;21757;-57
2021/07/04 11:40:10;;;;;;;4.55;1.60;;;;;;;31.12;36.07;99574.39;1758032;81;22022;-57
2021/07/04 11:43:31;;;;;;;3.55;2.00;;;;;;;31.24;37.05;99576.83;1734730;82;21420;-61
2021/07/04 11:46:38;;;;;;;3.67;1.60;;;;;;;31.29;37.36;99577.23;1725509;82;21371;-59
2021/07/04 11:49:48;;;;;;;6.72;2.08;;;;;;;31.25;37.76;99581.34;1726100;80;21217;-58
2021/07/04 11:52:54;;;;;;;4.78;1.92;;;;;;;31.24;38.28;99586.72;1761544;80;21303;-59
2021/07/04 11:56:11;;;;;;;3.90;1.77;;;;;;;31.28;38.36;99577.00;1765857;81;21365;-57
2021/07/04 11:59:18;;;;;;;3.60;2.10;;;;;;;31.30;37.34;99576.09;1735077;81;21876;-59
2021/07/04 12:02:26;;;;;;;3.72;1.90;;;;;;;31.33;37.25;99577.72;1755989;80;21782;-59
2021/07/04 12:05:33;;;;;;;5.90;2.50;;;;;;;31.38;37.15;99578.12;1765491;80;21197;-59
2021/07/04 12:09:03;;;;;;;6.37;2.40;;;;;;;31.36;37.27;99571.39;1766617;80;21978;-59
2021/07/04 12:12:08;;;;;;;4.92;2.70;;;;;;;31.32;38.29;99575.19;1754656;80;21229;-58
2021/07/04 12:15:17;;;;;;;3.47;2.30;;;;;;;31.35;37.29;99573.14;1769920;79;21764;-56
2021/07/04 12:18:24;;;;;;;5.37;2.55;;;;;;;31.40;37.66;99573.80;1757707;81;21268;-57
2021/07/04 12:21:31;;;;;;;5.55;2.60;;;;;;;31.44;37.89;99566.89;1744299;80;21260;-57
2021/07/04 12:24:45;;;;;;;9.15;3.27;;;;;;;31.40;38.85;99564.46;1770998;80;21200;-57
2021/07/04 12:27:54;;;;;;;5.28;3.12;;;;;;;31.32;38.45;99563.30;1767709;80;21193;-58
2021/07/04 12:31:01;;;;;;;6.85;2.87;;;;;;;31.29;39.99;99559.69;1769338;79;21343;-58
2021/07/04 12:34:13;;;;;;;5.80;3.22;;;;;;;31.29;40.06;99552.62;1769947;80;21868;-57
2021/07/04 12:37:16;;;;;;;4.50;2.90;;;;;;;31.33;40.06;99555.09;1764932;81;21675;-58
2021/07/04 12:40:28;;;;;;;5.30;3.40;;;;;;;31.38;40.56;99540.75;1758134;80;21201;-59
2021/07/04 12:43:42;;;;;;;4.60;3.30;;;;;;;31.39;39.69;99548.66;1754220;80;21248;-58
2021/07/04 12:46:51;;;;;;;7.58;3.20;;;;;;;31.25;39.00;99544.56;1763530;80;21904;-58
2021/07/04 12:50:15;;;;;;;5.30;3.33;;;;;;;31.12;40.09;99541.88;1769941;79;21291;-59
2021/07/04 12:53:21;;;;;;;7.67;3.20;;;;;;;31.12;40.88;99536.22;1763572;80;21189;-59
2021/07/04 12:56:31;;;;;;;5.67;3.50;;;;;;;31.19;40.95;99526.67;1767213;80;21300;-59
2021/07/04 12:59:41;;;;;;;5.55;3.15;;;;;;;31.26;41.64;99526.98;1718168;81;21875;-59
2021/07/04 13:02:54;;;;;;;4.90;3.12;;;;;;;31.24;40.72;99523.08;1752510;80;21343;-60
2021/07/04 13:06:01;;;;;;;4.85;3.47;;;;;;;31.22;41.21;99516.10;1740939;81;21845;-57
2021/07/04 13:09:14;;;;;;;5.75;3.17;;;;;;;31.25;41.20;99516.84;1759060;80;21311;-58
2021/07/04 13:12:27;;;;;;;5.28;3.05;;;;;;;31.29;41.33;99515.84;1762570;81;21198;-60
2021/07/04 13:15:33;;;;;;;4.90;3.30;;;;;;;31.34;41.99;99515.72;1770242;79;21170;-57
2021/07/04 13:18:40;;;;;;;4.55;3.17;;;;;;;31.38;41.54;99512.45;1740492;81;21197;-57
2021/07/04 13:21:48;;;;;;;6.92;3.22;;;;;;;31.34;40.22;99507.23;1739882;81;21796;-60
2021/07/04 13:25:04;;;;;;;6.25;4.08;;;;;;;31.34;40.44;99508.64;1740113;81;21378;-60
2021/07/04 13:28:17;;;;;;;5.30;3.12;;;;;;;31.35;39.76;99517.37;1740061;82;21736;-58
2021/07/04 13:31:24;;;;;;;5.35;3.22;;;;;;;31.28;40.31;99503.45;1733841;81;21378;-59
2021/07/04 13:34:32;;;;;;;4.62;3.25;;;;;;;31.30;40.06;99511.88;1753208;81;21161;-57
2021/07/04 13:37:39;;;;;;;7.33;3.47;;;;;;;31.27;39.51;99508.87;1741131;82;21201;-58
2021/07/04 13:40:44;;;;;;;5.50;3.45;;;;;;;31.23;40.12;99510.69;1740181;81;21263;-61
2021/07/04 13:43:51;;;;;;;6.45;3.58;;;;;;;31.17;41.17;99499.29;1740641;82;21346;-59
2021/07/04 13:46:58;;;;;;;6.45;3.65;;;;;;;31.20;41.80;99500.88;1740349;82;21743;-59
2021/07/04 13:50:05;;;;;;;7.00;3.22;;;;;;;31.27;41.37;99490.48;1740494;81;21201;-60
2021/07/04 13:53:14;;;;;;;6.47;3.85;;;;;;;31.29;41.98;99496.61;1740441;81;21359;-58
2021/07/04 13:56:22;;;;;;;6.25;3.40;;;;;;;31.28;42.05;99492.98;1739922;81;21196;-58
2021/07/04 13:59:27;;;;;;;7.08;3.47;;;;;;;31.30;42.57;99489.81;1739789;81;21189;-59
2021/07/04 14:02:33;;;;;;;10.40;3.37;;;;;;;31.34;42.49;99486.58;1759945;81;21201;-58
2021/07/04 14:05:42;;;;;;;8.58;4.33;;;;;;;31.36;41.98;99478.60;1768685;81;21190;-59
2021/07/04 14:08:48;;;;;;;5.85;3.60;;;;;;;31.37;42.86;99476.85;1768529;81;21395;-59
2021/07/04 14:11:53;;;;;;;6.60;3.35;;;;;;;31.43;42.41;99469.84;1769365;81;21370;-57
2021/07/04 14:15:02;;;;;;;4.97;3.45;;;;;;;31.51;42.59;99472.41;1769283;80;21710;-58
2021/07/04 14:18:09;;;;;;;5.33;3.50;;;;;;;31.49;41.52;99466.27;1769200;80;21374;-57
2021/07/04 14:21:16;;;;;;;7.62;3.37;;;;;;;31.39;41.27;99473.69;1770643;79;21363;-58
2021/07/04 14:24:21;;;;;;;4.50;3.30;;;;;;;31.33;41.85;99473.04;1770046;80;22025;-57
2021/07/04 14:27:31;;;;;;;5.75;3.70;;;;;;;31.34;42.15;99471.86;1759323;81;21186;-57
2021/07/04 14:30:37;;;;;;;4.80;2.83;;;;;;;31.33;41.74;99478.70;1768803;79;21347;-57
2021/07/04 14:33:43;;;;;;;5.35;3.42;;;;;;;31.33;42.15;99469.37;1767774;81;21326;-57
2021/07/04 14:36:49;;;;;;;6.22;3.33;;;;;;;31.33;42.25;99473.61;1770563;79;21789;-60
2021/07/04 14:39:59;;;;;;;7.12;3.22;;;;;;;31.34;42.69;99472.44;1770068;79;21208;-58
2021/07/04 14:43:05;;;;;;;6.35;2.90;;;;;;;31.32;42.36;99467.69;1760148;81;21686;-58